Time;durP1;ratioP1;P1;durP2;ratioP2;P2;SDS_P1;SDS_P2;PMS_P1;PMS_P2;Temp;Humidity;BMP_temperature;BMP_pressure;BME280_temperature;BME280_humidity;BME280_pressure;Samples;Min_cycle;Max_cycle;Signal;HPM_P1;HPM_P2
2023/07/21 00:02:25;;;;;;;7.45;2.88;;;12.60;99.90;;;;;;5080968;28;20094;-63
2023/07/21 00:04:51;;;;;;;4.20;2.30;;;12.60;99.90;;;;;;5080676;28;20652;-63
2023/07/21 00:07:17;;;;;;;5.85;2.60;;;12.60;99.90;;;;;;5097270;28;20036;-62
2023/07/21 00:09:44;;;;;;;5.25;2.40;;;12.50;99.90;;;;;;5082012;28;20233;-62
2023/07/21 00:12:10;;;;;;;5.22;2.30;;;12.50;99.90;;;;;;5080440;28;20347;-62
2023/07/21 00:14:36;;;;;;;5.15;2.45;;;12.50;99.90;;;;;;5081194;28;20572;-62
2023/07/21 00:17:05;;;;;;;5.80;2.80;;;12.50;99.90;;;;;;5081776;28;20051;-61
2023/07/21 00:19:31;;;;;;;6.20;2.40;;;12.40;99.90;;;;;;5079911;28;20126;-62
2023/07/21 00:21:56;;;;;;;4.50;2.45;;;12.40;99.90;;;;;;5096958;28;20566;-63
2023/07/21 00:24:23;;;;;;;4.60;2.63;;;12.40;99.90;;;;;;5080235;28;20044;-63
2023/07/21 00:26:49;;;;;;;7.25;3.15;;;12.40;99.90;;;;;;5063565;28;20071;-63
2023/07/21 00:29:15;;;;;;;4.60;2.40;;;12.40;99.90;;;;;;5063691;28;20591;-63
2023/07/21 00:31:46;;;;;;;7.90;3.15;;;12.40;99.90;;;;;;5062240;28;20063;-63
2023/07/21 00:34:12;;;;;;;5.63;2.30;;;12.30;99.90;;;;;;5079982;28;20043;-62
2023/07/21 00:36:38;;;;;;;5.07;2.42;;;12.30;99.90;;;;;;5081460;28;20036;-61
2023/07/21 00:39:04;;;;;;;6.38;2.53;;;12.30;99.90;;;;;;5080193;28;20048;-62
2023/07/21 00:41:30;;;;;;;5.75;2.60;;;12.20;99.90;;;;;;5081319;28;20060;-62
2023/07/21 00:43:56;;;;;;;6.68;2.85;;;12.30;99.90;;;;;;5082030;28;20044;-62
2023/07/21 00:46:23;;;;;;;4.97;2.72;;;12.30;99.90;;;;;;5079833;28;20052;-62
2023/07/21 00:48:49;;;;;;;5.68;2.80;;;12.20;99.90;;;;;;5080152;28;20067;-62
2023/07/21 00:51:17;;;;;;;4.53;2.30;;;12.20;99.90;;;;;;5079631;28;20154;-62
2023/07/21 00:53:43;;;;;;;5.93;2.63;;;12.20;99.90;;;;;;5079780;28;20253;-62
2023/07/21 00:56:08;;;;;;;5.28;2.42;;;12.10;99.90;;;;;;5079733;28;20040;-62
2023/07/21 00:58:36;;;;;;;5.50;2.75;;;12.10;99.90;;;;;;5080020;28;20347;-62
2023/07/21 01:01:02;;;;;;;5.80;2.05;;;12.10;99.90;;;;;;5079754;28;20044;-62
2023/07/21 01:03:27;;;;;;;5.60;2.65;;;12.00;99.90;;;;;;5062154;28;20044;-62
2023/07/21 01:05:54;;;;;;;5.15;2.55;;;12.00;99.90;;;;;;5078786;28;20131;-62
2023/07/21 01:08:21;;;;;;;7.38;2.50;;;12.00;99.90;;;;;;5096532;28;20160;-62
2023/07/21 01:10:47;;;;;;;6.93;2.83;;;12.00;99.90;;;;;;5096551;28;20279;-62
2023/07/21 01:13:13;;;;;;;5.10;3.20;;;11.90;99.90;;;;;;5081342;28;20036;-62
2023/07/21 01:15:45;;;;;;;7.45;2.90;;;11.90;99.90;;;;;;5096618;28;20043;-62
2023/07/21 01:18:16;;;;;;;5.30;2.55;;;11.80;99.90;;;;;;5079435;28;20350;-62
2023/07/21 01:20:43;;;;;;;5.43;3.05;;;11.80;99.90;;;;;;5079417;28;20048;-62
2023/07/21 01:23:29;;;;;;;4.10;2.72;;;11.70;99.90;;;;;;5062730;28;20044;-63
2023/07/21 01:25:57;;;;;;;5.93;2.70;;;11.70;99.90;;;;;;5080806;28;20040;-62
2023/07/21 01:28:24;;;;;;;4.68;2.55;;;11.60;99.90;;;;;;5079518;28;20040;-62
2023/07/21 01:30:53;;;;;;;5.25;2.72;;;11.60;99.90;;;;;;5079815;28;20406;-62
2023/07/21 01:33:20;;;;;;;5.93;2.83;;;11.50;99.90;;;;;;5081521;28;20048;-61
2023/07/21 01:35:50;;;;;;;6.18;3.13;;;11.50;99.90;;;;;;5079587;28;20443;-62
2023/07/21 01:38:18;;;;;;;5.45;3.47;;;11.50;99.90;;;;;;5081172;28;20113;-62
2023/07/21 01:40:46;;;;;;;6.63;3.58;;;11.50;99.90;;;;;;5079265;28;20492;-62
2023/07/21 01:43:14;;;;;;;7.22;2.90;;;11.50;99.90;;;;;;5079708;28;20510;-62
2023/07/21 01:45:41;;;;;;;5.80;3.15;;;11.40;99.90;;;;;;5079467;28;20060;-61
2023/07/21 01:48:07;;;;;;;7.78;3.63;;;11.40;99.90;;;;;;5096259;28;20050;-62
2023/07/21 01:50:34;;;;;;;6.70;3.40;;;11.40;99.90;;;;;;5078953;28;20115;-62
2023/07/21 01:53:03;;;;;;;6.10;3.80;;;11.40;99.90;;;;;;5078979;28;20457;-62
2023/07/21 01:55:35;;;;;;;8.25;3.90;;;11.40;99.90;;;;;;5080043;28;20036;-62
2023/07/21 01:58:05;;;;;;;8.15;3.70;;;11.40;99.90;;;;;;5079519;28;20051;-62
2023/07/21 02:00:39;;;;;;;7.15;3.83;;;11.40;99.90;;;;;;5079075;28;20450;-62
2023/07/21 02:03:05;;;;;;;5.00;3.53;;;11.40;99.90;;;;;;5080067;28;20131;-62
2023/07/21 02:05:32;;;;;;;7.68;3.33;;;11.30;99.90;;;;;;5080357;28;20032;-62
2023/07/21 02:07:58;;;;;;;10.40;4.13;;;11.40;99.90;;;;;;5078614;28;20040;-62
2023/07/21 02:10:23;;;;;;;7.10;3.70;;;11.30;99.90;;;;;;5095873;28;20058;-62
2023/07/21 02:12:49;;;;;;;8.60;3.90;;;11.30;99.90;;;;;;5079224;28;20177;-62
2023/07/21 02:15:15;;;;;;;6.72;4.00;;;11.20;99.90;;;;;;5078181;28;20047;-63
2023/07/21 02:17:41;;;;;;;8.05;4.15;;;11.20;99.90;;;;;;5062154;28;20121;-63
2023/07/21 02:20:10;;;;;;;7.78;4.25;;;11.20;99.90;;;;;;5078434;28;20530;-62
2023/07/21 02:22:40;;;;;;;7.53;4.28;;;11.20;99.90;;;;;;5078554;28;20144;-63
2023/07/21 02:25:08;;;;;;;6.95;4.05;;;11.20;99.90;;;;;;5079098;28;20097;-63
2023/07/21 02:27:36;;;;;;;6.43;4.35;;;11.20;99.90;;;;;;5079161;28;20035;-62
2023/07/21 02:30:02;;;;;;;7.65;4.10;;;11.20;99.90;;;;;;5095657;28;20048;-62
2023/07/21 02:32:28;;;;;;;9.68;4.65;;;11.10;99.90;;;;;;5078756;28;20486;-62
2023/07/21 02:34:56;;;;;;;8.77;4.80;;;11.10;99.90;;;;;;5095483;28;20050;-62
2023/07/21 02:37:22;;;;;;;10.57;4.38;;;11.10;99.90;;;;;;5095597;28;20052;-62
2023/07/21 02:39:47;;;;;;;7.43;4.90;;;11.10;99.90;;;;;;5078994;28;20481;-62
2023/07/21 02:42:13;;;;;;;7.47;4.55;;;11.00;99.90;;;;;;5079057;28;20051;-62
2023/07/21 02:44:39;;;;;;;9.38;4.70;;;11.10;99.90;;;;;;5078240;28;20122;-62
2023/07/21 02:47:07;;;;;;;7.72;4.75;;;11.00;99.90;;;;;;5078324;28;20036;-62
2023/07/21 02:49:33;;;;;;;8.27;5.28;;;11.00;99.90;;;;;;5078011;28;20241;-62
2023/07/21 02:51:59;;;;;;;7.18;5.07;;;11.00;99.90;;;;;;5078731;28;20535;-62
2023/07/21 02:54:24;;;;;;;10.45;6.28;;;11.00;99.90;;;;;;5078746;28;20118;-62
2023/07/21 02:56:50;;;;;;;11.07;5.78;;;10.90;99.90;;;;;;5082409;28;20425;-62
2023/07/21 02:59:16;;;;;;;10.02;6.07;;;11.00;99.90;;;;;;5082259;28;20128;-62
2023/07/21 03:01:54;;;;;;;10.45;6.72;;;11.00;99.90;;;;;;5082764;28;20440;-62
2023/07/21 03:04:25;;;;;;;9.77;7.10;;;11.00;99.90;;;;;;5099429;28;20048;-62
2023/07/21 03:06:51;;;;;;;12.20;7.35;;;11.00;99.90;;;;;;5083311;28;20314;-62
2023/07/21 03:09:17;;;;;;;13.18;7.43;;;11.00;1.00;;;;;;5081908;28;20047;-62
2023/07/21 03:11:43;;;;;;;10.65;7.20;;;11.00;1.00;;;;;;5083313;28;20123;-62
2023/07/21 03:14:10;;;;;;;12.45;7.25;;;11.00;1.00;;;;;;5083480;28;20536;-62
2023/07/21 03:16:36;;;;;;;10.18;7.53;;;11.00;1.00;;;;;;5082099;28;20047;-62
2023/07/21 03:19:01;;;;;;;10.93;7.47;;;11.00;1.00;;;;;;5083817;28;20768;-62
2023/07/21 03:21:27;;;;;;;8.60;6.47;;;10.90;1.00;;;;;;5065085;28;20040;-62
2023/07/21 03:23:53;;;;;;;9.45;7.20;;;10.90;1.00;;;;;;5082251;28;20044;-63
2023/07/21 03:26:20;;;;;;;10.85;7.05;;;10.90;1.00;;;;;;5064616;28;20043;-62
2023/07/21 03:28:46;;;;;;;13.48;7.70;;;10.90;1.00;;;;;;5082963;28;20239;-62
2023/07/21 03:31:11;;;;;;;12.85;7.65;;;10.90;1.00;;;;;;5081350;28;20247;-62
2023/07/21 03:33:37;;;;;;;10.40;7.25;;;10.90;1.00;;;;;;5064643;28;20453;-62
2023/07/21 03:36:04;;;;;;;12.15;7.88;;;10.90;1.00;;;;;;5065483;28;20456;-62
2023/07/21 03:38:35;;;;;;;10.90;7.60;;;10.90;1.00;;;;;;5081315;28;20052;-62
2023/07/21 03:41:06;;;;;;;13.60;7.70;;;10.90;1.00;;;;;;5082754;28;20584;-62
2023/07/21 03:43:33;;;;;;;15.73;8.95;;;10.90;1.00;;;;;;5080974;28;20039;-62
2023/07/21 03:46:02;;;;;;;15.43;8.88;;;10.90;1.00;;;;;;5081127;28;20051;-62
2023/07/21 03:48:30;;;;;;;11.13;7.35;;;10.90;1.00;;;;;;5082189;28;20742;-62
2023/07/21 03:51:05;;;;;;;15.60;9.30;;;10.90;1.00;;;;;;5081196;28;20120;-63
2023/07/21 03:53:31;;;;;;;16.08;9.60;;;10.90;1.00;;;;;;5082366;28;20040;-62
2023/07/21 03:55:57;;;;;;;15.13;9.50;;;11.10;1.00;;;;;;5097987;28;20044;-62
2023/07/21 03:58:23;;;;;;;12.70;9.98;;;11.10;13.10;;;;;;5098162;28;20390;-62
2023/07/21 04:00:49;;;;;;;14.82;10.18;;;11.20;6.60;;;;;;5081992;28;20402;-62
2023/07/21 04:03:17;;;;;;;14.65;9.90;;;11.20;19.80;;;;;;5080603;28;20054;-62
2023/07/21 04:05:42;;;;;;;14.02;10.07;;;11.30;56.50;;;;;;5080494;28;20043;-62
2023/07/21 04:08:08;;;;;;;14.18;10.13;;;11.30;62.40;;;;;;5082237;28;20871;-62
2023/07/21 04:10:35;;;;;;;14.32;10.32;;;11.30;80.20;;;;;;5063576;28;20196;-62
2023/07/21 04:13:01;;;;;;;14.65;9.32;;;11.40;72.00;;;;;;5081292;28;20051;-62
2023/07/21 04:15:27;;;;;;;13.93;10.15;;;11.30;99.90;;;;;;5080760;28;20036;-62
2023/07/21 04:17:53;;;;;;;16.95;9.93;;;11.40;99.90;;;;;;5081838;28;20410;-62
2023/07/21 04:20:21;;;;;;;13.48;9.52;;;11.30;99.90;;;;;;5082236;28;20437;-62
2023/07/21 04:22:47;;;;;;;13.93;8.95;;;11.40;99.90;;;;;;5097291;28;20040;-61
2023/07/21 04:25:12;;;;;;;15.82;9.52;;;11.50;99.90;;;;;;5081841;28;20044;-62
2023/07/21 04:27:38;;;;;;;12.35;9.18;;;11.50;99.90;;;;;;5080664;28;20085;-62
2023/07/21 04:30:05;;;;;;;12.38;9.02;;;11.50;99.90;;;;;;5081099;28;20052;-63
2023/07/21 04:32:33;;;;;;;12.52;8.77;;;11.50;99.90;;;;;;5080411;28;20581;-62
2023/07/21 04:34:59;;;;;;;13.88;7.90;;;11.70;99.90;;;;;;5080754;28;20646;-61
2023/07/21 04:37:25;;;;;;;12.48;8.05;;;11.70;99.90;;;;;;5079826;28;20115;-62
2023/07/21 04:39:51;;;;;;;14.55;9.07;;;11.80;99.90;;;;;;5080306;28;20046;-63
2023/07/21 04:42:17;;;;;;;12.32;8.27;;;11.90;99.90;;;;;;5081825;28;20051;-63
2023/07/21 04:44:44;;;;;;;13.77;8.77;;;12.00;99.90;;;;;;5063857;28;20044;-63
2023/07/21 04:47:10;;;;;;;12.43;8.23;;;12.10;99.90;;;;;;5079918;28;20143;-63
2023/07/21 04:49:36;;;;;;;13.68;8.55;;;12.20;99.90;;;;;;5063033;28;20346;-63
2023/07/21 04:52:03;;;;;;;11.88;7.55;;;12.40;99.90;;;;;;5079798;28;20036;-63
2023/07/21 04:54:29;;;;;;;9.45;7.00;;;12.40;99.90;;;;;;5079853;28;20056;-63
2023/07/21 04:56:55;;;;;;;10.07;6.85;;;12.40;99.90;;;;;;5063090;28;20074;-63
2023/07/21 04:59:21;;;;;;;8.35;6.72;;;12.50;99.90;;;;;;5080120;28;20044;-61
2023/07/21 05:01:49;;;;;;;10.45;6.57;;;12.60;99.90;;;;;;5062793;28;20044;-62
2023/07/21 05:04:16;;;;;;;9.18;6.30;;;12.70;99.90;;;;;;5079043;28;20044;-62
2023/07/21 05:06:47;;;;;;;12.25;7.65;;;12.80;99.90;;;;;;5062513;28;20397;-62
2023/07/21 05:09:13;;;;;;;8.88;6.63;;;12.80;99.90;;;;;;5079130;28;20044;-62
2023/07/21 05:11:39;;;;;;;9.32;5.97;;;12.90;99.90;;;;;;5079910;28;20097;-63
2023/07/21 05:14:05;;;;;;;8.20;5.90;;;13.00;99.90;;;;;;5045923;28;20044;-62
2023/07/21 05:16:31;;;;;;;10.30;5.78;;;13.00;99.90;;;;;;5079050;28;20044;-62
2023/07/21 05:18:58;;;;;;;10.18;6.07;;;13.10;99.90;;;;;;5078633;28;20051;-63
2023/07/21 05:21:24;;;;;;;7.53;5.53;;;13.30;99.90;;;;;;5062393;28;20430;-63
2023/07/21 05:23:49;;;;;;;6.88;5.07;;;13.30;99.90;;;;;;5095882;28;20039;-63
2023/07/21 05:26:16;;;;;;;9.48;5.40;;;13.50;99.90;;;;;;5079468;28;20071;-63
2023/07/21 05:28:41;;;;;;;9.55;4.32;;;13.70;99.90;;;;;;5079514;28;20413;-63
2023/07/21 05:31:11;;;;;;;6.28;3.88;;;13.90;99.90;;;;;;5078640;28;20036;-63
2023/07/21 05:33:36;;;;;;;5.65;3.25;;;14.00;99.90;;;;;;5062029;28;20044;-63
2023/07/21 05:36:08;;;;;;;8.20;3.72;;;14.20;99.90;;;;;;5061903;28;20063;-63
2023/07/21 05:38:35;;;;;;;7.28;3.55;;;14.30;99.90;;;;;;5095876;28;20338;-62
2023/07/21 05:41:01;;;;;;;6.35;3.50;;;14.40;99.90;;;;;;5062542;28;20050;-63
2023/07/21 05:43:27;;;;;;;5.50;3.00;;;14.50;83.40;;;;;;5095624;28;20042;-62
2023/07/21 05:45:53;;;;;;;6.32;3.50;;;14.50;1.00;;;;;;5078669;28;20619;-62
2023/07/21 05:48:19;;;;;;;6.18;2.90;;;14.60;1.00;;;;;;5078670;28;20145;-62
2023/07/21 05:50:44;;;;;;;3.92;2.55;;;14.60;1.00;;;;;;5078721;28;20144;-63
2023/07/21 05:53:10;;;;;;;6.22;2.70;;;14.70;1.00;;;;;;5061846;28;20387;-63
2023/07/21 05:55:40;;;;;;;4.60;2.42;;;15.00;1.00;;;;;;5079018;28;20183;-62
2023/07/21 05:58:05;;;;;;;4.80;2.28;;;15.40;1.00;;;;;;5080162;28;20035;-63
2023/07/21 06:00:36;;;;;;;4.00;2.22;;;15.70;99.90;;;;;;5079061;28;20051;-62
2023/07/21 06:03:02;;;;;;;5.47;2.38;;;15.70;99.90;;;;;;5080086;28;20330;-62
2023/07/21 06:05:28;;;;;;;2.70;2.13;;;15.60;99.90;;;;;;5078212;28;20063;-61
2023/07/21 06:07:54;;;;;;;6.30;1.75;;;15.60;99.90;;;;;;5045634;28;20036;-61
2023/07/21 06:10:20;;;;;;;5.50;2.45;;;15.50;99.90;;;;;;5079074;28;20419;-62
2023/07/21 06:12:46;;;;;;;4.88;2.03;;;15.60;99.90;;;;;;5078154;28;20036;-62
2023/07/21 06:15:13;;;;;;;6.55;2.40;;;15.60;99.90;;;;;;5078168;28;20159;-63
2023/07/21 06:17:39;;;;;;;5.55;2.40;;;15.70;99.90;;;;;;5078037;28;20046;-62
2023/07/21 06:20:07;;;;;;;4.57;2.00;;;15.80;99.90;;;;;;5078704;28;20156;-62
2023/07/21 06:22:33;;;;;;;5.15;2.72;;;16.00;99.90;;;;;;5080569;28;20036;-62
2023/07/21 06:24:59;;;;;;;6.47;2.95;;;16.40;99.90;;;;;;5080239;28;20066;-62
2023/07/21 06:27:25;;;;;;;3.58;2.55;;;16.70;90.20;;;;;;5061217;28;20071;-63
2023/07/21 06:29:50;;;;;;;5.00;2.90;;;16.70;79.90;;;;;;5094989;28;20155;-63
2023/07/21 06:32:16;;;;;;;5.97;2.50;;;16.90;14.80;;;;;;5094660;28;20040;-62
2023/07/21 06:34:42;;;;;;;4.50;2.30;;;16.90;1.00;;;;;;5077824;28;20422;-62
2023/07/21 06:37:08;;;;;;;7.88;1.75;;;17.00;1.00;;;;;;5061301;28;20169;-62
2023/07/21 06:39:33;;;;;;;4.78;2.17;;;17.10;99.90;;;;;;5078190;28;20127;-62
2023/07/21 06:41:59;;;;;;;5.30;2.67;;;17.10;99.90;;;;;;5079706;28;20040;-63
2023/07/21 06:44:25;;;;;;;5.30;2.90;;;17.00;99.90;;;;;;5077735;28;20052;-63
2023/07/21 06:46:52;;;;;;;5.70;3.50;;;17.00;99.90;;;;;;5079042;28;20072;-62
2023/07/21 06:49:17;;;;;;;5.32;2.88;;;17.20;99.90;;;;;;5094459;28;20055;-62
2023/07/21 06:51:43;;;;;;;4.05;2.30;;;17.60;99.90;;;;;;5079830;28;20032;-63
2023/07/21 06:54:09;;;;;;;3.53;1.70;;;18.10;99.90;;;;;;5061697;28;20172;-62
2023/07/21 06:56:35;;;;;;;4.03;1.55;;;18.40;99.90;;;;;;5061256;28;20044;-62
2023/07/21 06:59:01;;;;;;;2.63;1.50;;;18.60;99.90;;;;;;5077700;28;20502;-63
2023/07/21 07:01:27;;;;;;;5.38;1.00;;;18.70;99.90;;;;;;5061250;28;20051;-63
2023/07/21 07:03:53;;;;;;;2.42;1.00;;;18.70;99.90;;;;;;5079313;28;20036;-62
2023/07/21 07:06:19;;;;;;;2.25;0.90;;;18.40;99.90;;;;;;5078138;28;20048;-63
2023/07/21 07:08:44;;;;;;;2.70;0.88;;;18.40;99.90;;;;;;5079912;28;20415;-63
2023/07/21 07:11:11;;;;;;;2.65;0.60;;;18.60;99.90;;;;;;5079359;28;20141;-63
2023/07/21 07:13:37;;;;;;;1.35;0.40;;;18.90;99.90;;;;;;5061793;28;20063;-63
2023/07/21 07:16:03;;;;;;;1.95;0.40;;;19.20;99.90;;;;;;5079376;28;20449;-63
2023/07/21 07:18:29;;;;;;;2.85;0.50;;;19.30;31.80;;;;;;5079597;28;20043;-62
2023/07/21 07:20:56;;;;;;;1.58;0.60;;;19.40;1.90;;;;;;5077896;28;20074;-62
2023/07/21 07:23:23;;;;;;;2.70;0.60;;;19.50;1.00;;;;;;5095588;28;20036;-62
2023/07/21 07:25:51;;;;;;;2.10;0.50;;;19.50;1.00;;;;;;5077788;28;20032;-63
2023/07/21 07:28:18;;;;;;;1.38;0.40;;;19.50;99.90;;;;;;5077691;28;20140;-63
2023/07/21 07:30:45;;;;;;;1.20;0.50;;;19.40;99.90;;;;;;5077618;28;20052;-63
2023/07/21 07:33:11;;;;;;;2.28;0.57;;;19.80;99.90;;;;;;5077223;28;20179;-63
2023/07/21 07:35:45;;;;;;;1.05;0.40;;;20.20;99.90;;;;;;5079127;28;20040;-63
2023/07/21 07:38:11;;;;;;;1.05;0.50;;;20.40;99.90;;;;;;5094499;28;20044;-63
2023/07/21 07:40:38;;;;;;;1.35;0.30;;;20.60;99.90;;;;;;5077124;28;20040;-63
2023/07/21 07:43:04;;;;;;;1.00;0.40;;;20.80;99.90;;;;;;5082404;28;20060;-63
2023/07/21 07:45:31;;;;;;;0.98;0.30;;;20.80;99.90;;;;;;5080174;28;20067;-62
2023/07/21 07:47:57;;;;;;;1.10;0.20;;;20.50;99.90;;;;;;5083066;28;20157;-62
2023/07/21 07:50:22;;;;;;;1.25;0.30;;;20.10;99.90;;;;;;5064827;28;20043;-64
2023/07/21 07:52:49;;;;;;;2.08;0.30;;;19.90;99.90;;;;;;5080819;28;20386;-63
2023/07/21 07:55:15;;;;;;;1.17;0.30;;;19.70;99.90;;;;;;5080740;28;20406;-63
2023/07/21 07:57:41;;;;;;;0.98;0.30;;;19.70;99.90;;;;;;5064320;28;20048;-63
2023/07/21 08:00:08;;;;;;;1.63;0.60;;;20.00;99.90;;;;;;5064054;28;20073;-63
2023/07/21 08:02:34;;;;;;;2.85;0.60;;;20.40;99.90;;;;;;5064230;28;20131;-63
2023/07/21 08:04:59;;;;;;;3.40;1.08;;;20.50;99.90;;;;;;5080955;28;20130;-63
2023/07/21 08:07:25;;;;;;;1.58;0.50;;;20.90;99.90;;;;;;5080602;28;20571;-62
2023/07/21 08:09:51;;;;;;;1.67;0.40;;;21.20;99.90;;;;;;5080960;28;20064;-63
2023/07/21 08:12:17;;;;;;;1.42;0.40;;;21.50;99.90;;;;;;5063805;28;20101;-63
2023/07/21 08:14:43;;;;;;;1.20;0.25;;;21.60;1.00;;;;;;5082385;28;20042;-63
2023/07/21 08:17:09;;;;;;;0.90;0.30;;;21.60;1.00;;;;;;5080277;28;20047;-64
2023/07/21 08:19:35;;;;;;;1.00;0.40;;;21.50;1.00;;;;;;5064609;28;20062;-64
2023/07/21 08:22:07;;;;;;;1.70;0.40;;;21.50;1.00;;;;;;5081096;28;20052;-63
2023/07/21 08:24:33;;;;;;;1.75;0.50;;;21.50;1.00;;;;;;5063946;28;20127;-61
2023/07/21 08:26:59;;;;;;;1.20;0.40;;;21.80;1.00;;;;;;5097504;28;20269;-62
2023/07/21 08:29:27;;;;;;;1.67;0.40;;;22.20;1.00;;;;;;5079845;28;20412;-63
2023/07/21 08:31:53;;;;;;;1.08;0.40;;;22.50;1.00;;;;;;5080566;28;20403;-63
2023/07/21 08:34:19;;;;;;;0.70;0.40;;;22.70;1.00;;;;;;5081791;28;20047;-63
2023/07/21 08:36:44;;;;;;;2.50;0.50;;;22.70;1.00;;;;;;5081838;28;20455;-63
2023/07/21 08:39:10;;;;;;;2.05;0.30;;;22.80;99.90;;;;;;5081457;28;20047;-62
2023/07/21 08:41:48;;;;;;;0.57;0.30;;;22.20;99.90;;;;;;5080033;28;20119;-62
2023/07/21 08:44:16;;;;;;;1.23;0.30;;;21.90;99.90;;;;;;5080603;28;20055;-64
2023/07/21 08:46:42;;;;;;;0.70;0.30;;;21.70;99.90;;;;;;5079798;28;20614;-63
2023/07/21 08:49:09;;;;;;;1.00;0.28;;;21.30;1.00;;;;;;5079382;28;20169;-63
2023/07/21 08:51:36;;;;;;;1.42;0.25;;;21.20;99.90;;;;;;5079586;28;20039;-63
2023/07/21 08:54:04;;;;;;;0.68;0.30;;;21.20;1.00;;;;;;5078426;28;20063;-62
2023/07/21 08:56:30;;;;;;;0.60;0.30;;;21.60;99.90;;;;;;5062626;28;20247;-63
2023/07/21 08:58:56;;;;;;;0.77;0.20;;;21.80;99.90;;;;;;5079941;28;20043;-62
2023/07/21 09:01:21;;;;;;;1.35;0.20;;;21.90;99.90;;;;;;5079405;28;20050;-62
2023/07/21 09:03:48;;;;;;;1.33;0.20;;;22.30;99.90;;;;;;5062339;28;20036;-63
2023/07/21 09:06:14;;;;;;;0.88;0.20;;;22.50;99.90;;;;;;5079513;28;20040;-61
2023/07/21 09:08:40;;;;;;;1.42;0.22;;;22.50;99.90;;;;;;5096486;28;20112;-62
2023/07/21 09:11:07;;;;;;;0.57;0.20;;;22.30;99.90;;;;;;5079080;28;20048;-62
2023/07/21 09:13:33;;;;;;;0.70;0.10;;;22.40;99.90;;;;;;5062733;28;20047;-62
2023/07/21 09:16:06;;;;;;;0.90;0.20;;;22.40;99.90;;;;;;5079118;28;20039;-63
2023/07/21 09:18:40;;;;;;;1.13;0.20;;;22.90;99.90;;;;;;5080535;28;20368;-62
2023/07/21 09:21:07;;;;;;;1.17;0.30;;;23.50;99.90;;;;;;5095827;28;20048;-63
2023/07/21 09:23:33;;;;;;;1.65;0.60;;;23.70;99.90;;;;;;5087454;28;20051;-62
2023/07/21 09:26:00;;;;;;;0.65;0.30;;;23.60;99.90;;;;;;5088994;28;20044;-63
2023/07/21 09:28:43;;;;;;;1.42;0.30;;;23.20;99.90;;;;;;5089704;28;20036;-63
2023/07/21 09:31:10;;;;;;;0.55;0.20;;;23.20;99.90;;;;;;5106444;28;20043;-62
2023/07/21 09:33:40;;;;;;;1.27;0.30;;;22.90;99.90;;;;;;5106440;28;20611;-62
2023/07/21 09:36:15;;;;;;;1.48;0.20;;;22.70;99.90;;;;;;5089843;28;20109;-62
2023/07/21 09:38:41;;;;;;;1.30;0.40;;;22.50;99.90;;;;;;5105706;28;20048;-63
2023/07/21 09:41:09;;;;;;;0.73;0.25;;;22.40;99.90;;;;;;5089303;28;20137;-62
2023/07/21 09:43:36;;;;;;;2.15;0.20;;;23.10;99.90;;;;;;5090426;28;20166;-62
2023/07/21 09:46:04;;;;;;;0.88;0.20;;;24.00;99.90;;;;;;5071696;28;20060;-63
2023/07/21 09:48:30;;;;;;;1.95;0.20;;;23.90;99.90;;;;;;5104549;28;20039;-62
2023/07/21 09:51:05;;;;;;;1.00;0.30;;;23.50;99.90;;;;;;5105534;28;20050;-63
2023/07/21 09:53:36;;;;;;;2.22;0.20;;;23.50;99.90;;;;;;5089942;28;20058;-62
2023/07/21 09:56:03;;;;;;;2.25;0.20;;;23.10;99.90;;;;;;5089308;28;20036;-63
2023/07/21 09:58:30;;;;;;;1.27;0.28;;;22.90;99.90;;;;;;5088994;28;20063;-63
2023/07/21 10:01:16;;;;;;;0.88;0.30;;;22.60;99.90;;;;;;5088673;28;20044;-63
2023/07/21 10:03:43;;;;;;;0.70;0.20;;;23.00;99.90;;;;;;5088000;28;20039;-61
2023/07/21 10:06:09;;;;;;;1.15;0.20;;;23.40;99.90;;;;;;5090047;28;20046;-62
2023/07/21 10:08:36;;;;;;;1.55;0.30;;;23.60;99.90;;;;;;5090261;28;20058;-63
2023/07/21 10:11:05;;;;;;;1.55;0.20;;;23.60;99.90;;;;;;5090268;28;20075;-63
2023/07/21 10:13:34;;;;;;;0.68;0.20;;;23.80;99.90;;;;;;5090339;28;20036;-62
2023/07/21 10:16:08;;;;;;;1.75;0.40;;;23.60;99.90;;;;;;5089456;28;20533;-63
2023/07/21 10:18:33;;;;;;;2.17;0.30;;;23.20;99.90;;;;;;5072363;28;20035;-63
2023/07/21 10:21:00;;;;;;;0.70;0.30;;;23.00;99.90;;;;;;5089324;28;20497;-64
2023/07/21 10:23:37;;;;;;;0.90;0.30;;;23.70;99.90;;;;;;5088970;28;20040;-65
2023/07/21 10:26:07;;;;;;;0.93;0.30;;;23.80;99.90;;;;;;5089161;28;20075;-62
2023/07/21 10:28:44;;;;;;;1.05;0.30;;;23.50;99.90;;;;;;5088558;28;20613;-63
2023/07/21 10:31:22;;;;;;;0.63;0.20;;;23.60;99.90;;;;;;5088876;28;20408;-64
2023/07/21 10:34:06;;;;;;;0.82;0.20;;;23.40;99.90;;;;;;5088666;28;20051;-63
2023/07/21 10:36:41;;;;;;;1.98;0.30;;;23.50;99.90;;;;;;5089435;28;20074;-63
2023/07/21 10:39:12;;;;;;;0.60;0.20;;;23.40;99.90;;;;;;5072242;28;20039;-63
2023/07/21 10:41:39;;;;;;;1.08;0.22;;;23.70;99.90;;;;;;5088606;28;20118;-63
2023/07/21 10:44:06;;;;;;;0.90;0.30;;;24.40;99.90;;;;;;5071838;28;20381;-62
2023/07/21 10:46:40;;;;;;;0.90;0.30;;;24.80;99.90;;;;;;5087997;28;20579;-63
2023/07/21 10:49:07;;;;;;;0.85;0.25;;;24.40;99.90;;;;;;5089040;28;20035;-63
2023/07/21 10:51:33;;;;;;;1.45;0.30;;;23.60;99.90;;;;;;5088797;28;20063;-63
2023/07/21 10:53:59;;;;;;;0.85;0.30;;;23.30;99.90;;;;;;5088927;28;20054;-63
2023/07/21 10:56:25;;;;;;;1.13;0.30;;;23.10;99.90;;;;;;5089089;28;20040;-63
2023/07/21 10:58:52;;;;;;;0.90;0.30;;;22.90;99.90;;;;;;5071737;28;20039;-63
2023/07/21 11:01:22;;;;;;;1.27;0.30;;;22.70;99.90;;;;;;5105243;28;20051;-62
2023/07/21 11:03:48;;;;;;;2.38;0.38;;;22.50;99.90;;;;;;5066275;28;20541;-62
2023/07/21 11:06:14;;;;;;;1.13;0.20;;;22.30;99.90;;;;;;5078525;28;20039;-63
2023/07/21 11:08:40;;;;;;;1.90;0.35;;;22.30;99.90;;;;;;5044395;28;20097;-64
2023/07/21 11:11:07;;;;;;;1.15;0.32;;;22.20;99.90;;;;;;5095111;28;20048;-64
2023/07/21 11:13:33;;;;;;;1.33;0.35;;;22.00;99.90;;;;;;5061345;28;20101;-64
2023/07/21 11:16:00;;;;;;;1.20;0.40;;;22.00;99.90;;;;;;5062189;28;20039;-64
2023/07/21 11:18:28;;;;;;;1.73;0.30;;;21.80;99.90;;;;;;5065638;28;20251;-63
2023/07/21 11:20:55;;;;;;;1.20;0.30;;;21.90;99.90;;;;;;5082091;28;20104;-64
2023/07/21 11:23:21;;;;;;;1.80;0.40;;;21.90;99.90;;;;;;5081729;28;20134;-64
2023/07/21 11:26:06;;;;;;;1.58;0.40;;;21.90;99.90;;;;;;5081685;28;20074;-63
2023/07/21 11:28:33;;;;;;;2.28;0.30;;;21.90;99.90;;;;;;5065101;28;20094;-64
2023/07/21 11:31:00;;;;;;;1.13;0.40;;;22.10;99.90;;;;;;5081806;28;20132;-63
2023/07/21 11:33:39;;;;;;;0.70;0.30;;;22.00;99.90;;;;;;5081152;28;20051;-64
2023/07/21 11:36:17;;;;;;;1.33;0.38;;;22.20;99.90;;;;;;5064736;28;20032;-64
2023/07/21 11:39:02;;;;;;;1.10;0.40;;;22.10;99.90;;;;;;5082141;28;20051;-63
2023/07/21 11:41:47;;;;;;;1.17;0.40;;;22.10;99.90;;;;;;5080883;28;20043;-63
2023/07/21 11:44:23;;;;;;;1.48;0.40;;;22.10;99.90;;;;;;5098735;28;20047;-64
2023/07/21 11:47:04;;;;;;;1.13;0.50;;;22.30;99.90;;;;;;5097647;28;20056;-63
2023/07/21 11:49:30;;;;;;;1.80;0.50;;;22.10;99.90;;;;;;5063812;28;20051;-64
2023/07/21 11:52:03;;;;;;;2.88;0.40;;;22.20;99.90;;;;;;5080525;28;20583;-64
2023/07/21 11:54:35;;;;;;;1.58;0.40;;;21.40;99.90;;;;;;5081561;28;20072;-64
2023/07/21 11:57:01;;;;;;;1.40;0.40;;;21.70;99.90;;;;;;5063969;28;20044;-63
2023/07/21 11:59:28;;;;;;;1.55;0.60;;;21.90;99.90;;;;;;5080499;28;20052;-64
2023/07/21 12:01:55;;;;;;;1.27;0.50;;;22.40;99.90;;;;;;5081112;28;20135;-64
2023/07/21 12:04:22;;;;;;;1.27;0.47;;;23.00;99.90;;;;;;5097318;28;20067;-63
2023/07/21 12:06:48;;;;;;;0.85;0.50;;;23.30;99.90;;;;;;5065016;28;20036;-64
2023/07/21 12:09:16;;;;;;;1.40;0.40;;;23.70;99.90;;;;;;5080346;28;20115;-64
2023/07/21 12:11:42;;;;;;;1.42;0.40;;;24.00;99.90;;;;;;5097688;28;20044;-63
2023/07/21 12:14:09;;;;;;;1.77;0.40;;;24.00;99.90;;;;;;5080448;28;20355;-63
2023/07/21 12:16:35;;;;;;;3.38;0.40;;;23.80;99.90;;;;;;5047385;28;20048;-63
2023/07/21 12:19:03;;;;;;;0.98;0.40;;;23.10;99.90;;;;;;5080917;28;20052;-64
2023/07/21 12:21:30;;;;;;;1.30;0.40;;;23.00;99.90;;;;;;5097604;28;20081;-63
2023/07/21 12:23:56;;;;;;;1.95;0.40;;;22.70;99.90;;;;;;5080072;28;20083;-63
2023/07/21 12:26:22;;;;;;;1.80;0.75;;;22.40;99.90;;;;;;5080144;28;20102;-64
2023/07/21 12:28:48;;;;;;;3.60;1.08;;;21.20;1.00;;;;;;5096818;28;20350;-62
2023/07/21 12:31:17;;;;;;;2.92;0.93;;;21.40;94.30;;;;;;5062983;28;20450;-63
2023/07/21 12:33:48;;;;;;;5.78;1.30;;;20.50;99.90;;;;;;5080045;28;20057;-63
2023/07/21 12:36:18;;;;;;;5.13;1.30;;;19.70;99.90;;;;;;5080433;28;20044;-63
2023/07/21 12:38:44;;;;;;;6.28;1.30;;;18.90;99.90;;;;;;5079916;28;20082;-63
2023/07/21 12:41:11;;;;;;;6.13;1.23;;;18.50;99.90;;;;;;5079216;28;20422;-64
2023/07/21 12:43:37;;;;;;;7.03;1.17;;;18.30;99.90;;;;;;5095765;28;20062;-63
2023/07/21 12:46:04;;;;;;;7.75;1.40;;;18.00;1.00;;;;;;5078713;28;20457;-63
2023/07/21 12:48:30;;;;;;;4.18;0.80;;;17.80;1.00;;;;;;5096251;28;20178;-63